createdAt,value
2023-01-15T00:02:29.067Z,4.28
2023-01-15T00:05:43.513Z,3.73
2023-01-15T00:08:56.790Z,3.33
2023-01-15T00:12:09.782Z,2.85
2023-01-15T00:15:21.962Z,3.38
2023-01-15T00:18:34.386Z,3.60
2023-01-15T00:21:46.480Z,2.73
2023-01-15T00:25:13.225Z,2.58
2023-01-15T00:28:25.397Z,2.45
2023-01-15T00:31:41.263Z,2.30
2023-01-15T00:34:53.932Z,2.10
2023-01-15T00:38:06.118Z,2.48
2023-01-15T00:41:18.581Z,2.38
2023-01-15T00:44:33.291Z,2.45
2023-01-15T00:47:48.207Z,2.20
2023-01-15T00:51:00.298Z,2.40
2023-01-15T00:54:14.790Z,2.35
2023-01-15T00:57:26.887Z,2.03
2023-01-15T01:00:39.334Z,2.08
2023-01-15T01:03:53.115Z,2.55
2023-01-15T01:07:07.493Z,1.75
2023-01-15T01:10:19.689Z,2.85
2023-01-15T01:13:31.739Z,2.20
2023-01-15T01:16:46.037Z,1.80
2023-01-15T01:19:59.182Z,1.90
2023-01-15T01:23:13.324Z,2.43
2023-01-15T01:26:25.886Z,2.10
2023-01-15T01:29:37.899Z,1.63
2023-01-15T01:32:51.720Z,2.30
2023-01-15T01:36:03.790Z,1.80
2023-01-15T01:39:20.803Z,1.63
2023-01-15T01:42:33.452Z,2.00
2023-01-15T01:45:45.667Z,2.23
2023-01-15T01:49:02.138Z,2.45
2023-01-15T01:52:18.339Z,2.10
2023-01-15T01:55:34.342Z,2.03
2023-01-15T01:58:47.581Z,2.60
2023-01-15T02:02:00.518Z,2.38
2023-01-15T02:05:19.446Z,1.88
2023-01-15T02:08:33.498Z,1.98
2023-01-15T02:11:46.132Z,2.40
2023-01-15T02:15:05.706Z,1.98
2023-01-15T02:18:26.563Z,2.40
2023-01-15T02:21:50.080Z,2.30
2023-01-15T02:25:10.914Z,2.50
2023-01-15T02:28:28.346Z,1.95
2023-01-15T02:31:46.047Z,1.80
2023-01-15T02:35:03.998Z,2.20
2023-01-15T02:38:21.730Z,2.40
2023-01-15T02:41:40.908Z,2.28
2023-01-15T02:44:57.599Z,2.10
2023-01-15T02:48:15.306Z,2.30
2023-01-15T02:51:34.726Z,2.40
2023-01-15T02:54:53.256Z,2.53
2023-01-15T02:58:11.832Z,2.10
2023-01-15T03:01:28.817Z,2.33
2023-01-15T03:04:46.617Z,2.20
2023-01-15T03:08:02.386Z,2.20
2023-01-15T03:11:19.203Z,2.48
2023-01-15T03:14:38.542Z,2.38
2023-01-15T03:17:57.202Z,2.93
2023-01-15T03:21:14.661Z,2.25
2023-01-15T03:24:43.838Z,2.40
2023-01-15T03:27:59.770Z,2.65
2023-01-15T03:31:13.193Z,2.95
2023-01-15T03:34:25.564Z,2.50
2023-01-15T03:37:38.165Z,2.43
2023-01-15T03:40:57.833Z,2.70
2023-01-15T03:44:18.239Z,2.58
2023-01-15T03:47:47.277Z,2.75
2023-01-15T03:51:06.474Z,2.48
2023-01-15T04:00:28.288Z,2.40
2023-01-15T04:03:43.208Z,2.53
2023-01-15T04:15:57.072Z,2.33
2023-01-15T04:19:10.329Z,2.53
2023-01-15T04:22:24.284Z,2.55
2023-01-15T04:25:36.370Z,2.55
2023-01-15T04:28:49.230Z,2.35
2023-01-15T04:32:01.747Z,2.48
2023-01-15T04:35:15.188Z,2.33
2023-01-15T04:38:27.169Z,2.03
2023-01-15T04:41:53.870Z,2.53
2023-01-15T04:45:06.203Z,2.70
2023-01-15T04:48:18.924Z,2.50
2023-01-15T04:51:30.948Z,2.50
2023-01-15T04:54:43.067Z,2.70
2023-01-15T04:57:57.060Z,2.58
2023-01-15T05:01:11.335Z,2.40
2023-01-15T05:04:23.760Z,2.28
2023-01-15T05:07:35.772Z,2.43
2023-01-15T05:10:48.073Z,2.70
2023-01-15T05:14:00.173Z,2.65
2023-01-15T05:17:14.043Z,2.50
2023-01-15T05:20:26.542Z,2.63
2023-01-15T05:23:38.761Z,2.30
2023-01-15T05:26:51.735Z,2.50
2023-01-15T05:30:03.780Z,2.98
2023-01-15T05:33:15.783Z,2.45
2023-01-15T05:36:30.723Z,2.45
2023-01-15T05:39:43.548Z,2.50
2023-01-15T05:42:55.580Z,3.40
2023-01-15T05:46:10.873Z,2.80
2023-01-15T05:49:26.539Z,2.50
2023-01-15T05:52:38.506Z,2.70
2023-01-15T05:55:50.536Z,2.80
2023-01-15T05:59:02.724Z,2.20
2023-01-15T06:02:14.958Z,2.60
2023-01-15T06:05:27.029Z,2.40
2023-01-15T06:08:39.460Z,2.10
2023-01-15T06:14:51.948Z,2.25
2023-01-15T06:49:09.112Z,2.10
2023-01-15T06:52:21.578Z,1.90
2023-01-15T06:55:33.990Z,1.95
2023-01-15T06:58:46.924Z,2.00
2023-01-15T07:01:59.421Z,1.90
2023-01-15T07:05:13.325Z,2.40
2023-01-15T07:08:26.170Z,2.50
2023-01-15T07:11:41.383Z,2.08
2023-01-15T07:14:53.948Z,2.28
2023-01-15T07:18:06.325Z,2.13
2023-01-15T07:21:18.759Z,2.30
2023-01-15T07:24:31.062Z,2.20
2023-01-15T07:27:43.493Z,2.03
2023-01-15T07:30:55.978Z,2.13
2023-01-15T07:34:08.409Z,2.35
2023-01-15T07:37:20.758Z,2.20
2023-01-15T07:40:33.151Z,3.30
2023-01-15T07:43:59.819Z,2.58
2023-01-15T07:47:35.828Z,2.37
2023-01-15T07:50:48.329Z,2.48
2023-01-15T07:54:00.602Z,2.10
2023-01-15T07:57:14.538Z,2.30
2023-01-15T08:00:31.176Z,2.50
2023-01-15T08:03:44.114Z,2.20
2023-01-15T08:06:56.605Z,2.50
2023-01-15T08:10:09.494Z,2.28
2023-01-15T08:13:35.946Z,2.28
2023-01-15T08:16:48.570Z,5.27
2023-01-15T08:20:00.954Z,2.20
2023-01-15T08:23:13.979Z,2.60
2023-01-15T08:26:26.342Z,2.13
2023-01-15T08:29:39.322Z,1.70
2023-01-15T08:32:51.653Z,2.10
2023-01-15T08:36:05.339Z,2.20
2023-01-15T08:39:17.801Z,1.98
2023-01-15T08:42:30.394Z,2.13
2023-01-15T08:51:42.662Z,2.30
2023-01-15T08:54:54.710Z,2.60
2023-01-15T08:58:07.027Z,3.18
2023-01-15T09:01:20.118Z,2.00
2023-01-15T09:04:32.786Z,1.90
2023-01-15T09:07:45.192Z,2.00
2023-01-15T09:10:59.459Z,1.90
2023-01-15T09:14:59.802Z,2.00
2023-01-15T09:17:26.587Z,1.90
2023-01-15T09:20:39.348Z,2.13
2023-01-15T09:23:51.439Z,1.80
2023-01-15T09:27:03.792Z,2.10
2023-01-15T09:30:21.987Z,1.70
2023-01-15T09:33:34.484Z,2.00
2023-01-15T09:36:47.408Z,1.78
2023-01-15T09:39:59.557Z,1.90
2023-01-15T09:43:19.986Z,2.33
2023-01-15T09:46:38.698Z,1.75
2023-01-15T09:50:07.544Z,2.80
2023-01-15T09:53:44.203Z,1.90
2023-01-15T09:57:00.158Z,2.60
2023-01-15T10:00:24.239Z,2.13
2023-01-15T10:03:47.490Z,2.20
2023-01-15T10:07:05.064Z,1.65
2023-01-15T10:10:30.411Z,1.53
2023-01-15T10:13:50.083Z,1.90
2023-01-15T10:17:02.499Z,1.65
2023-01-15T10:20:22.242Z,1.90
2023-01-15T10:23:49.261Z,1.73
2023-01-15T10:27:06.713Z,2.05
2023-01-15T10:30:29.269Z,2.70
2023-01-15T10:33:54.538Z,1.83
2023-01-15T10:37:13.165Z,1.75
2023-01-15T10:40:44.184Z,1.90
2023-01-15T10:44:02.194Z,2.10
2023-01-15T10:47:21.049Z,1.98
2023-01-15T10:50:34.407Z,2.23
2023-01-15T10:53:51.542Z,1.98
2023-01-15T10:57:10.879Z,2.00
2023-01-15T11:00:25.327Z,2.00
2023-01-15T11:03:44.065Z,2.30
2023-01-15T11:06:56.348Z,2.40
2023-01-15T11:10:14.406Z,2.00
2023-01-15T11:13:45.135Z,1.93
2023-01-15T11:17:13.894Z,2.10
2023-01-15T11:20:34.676Z,2.13
2023-01-15T11:23:51.006Z,2.25
2023-01-15T11:27:04.561Z,2.33
2023-01-15T11:30:37.474Z,2.33
2023-01-15T11:34:02.028Z,2.50
2023-01-15T11:37:16.196Z,2.58
2023-01-15T11:40:30.950Z,2.53
2023-01-15T11:43:57.880Z,2.60
2023-01-15T11:47:30.662Z,3.08
2023-01-15T11:50:49.062Z,2.88
2023-01-15T11:54:06.284Z,2.65
2023-01-15T11:57:28.893Z,2.50
2023-01-15T12:00:47.140Z,2.48
2023-01-15T12:04:00.149Z,2.30
2023-01-15T12:07:19.251Z,2.35
2023-01-15T12:10:49.459Z,3.35
2023-01-15T12:14:12.730Z,2.90
2023-01-15T12:17:53.614Z,2.45
2023-01-15T12:21:18.599Z,2.70
2023-01-15T12:25:18.164Z,2.73
2023-01-15T12:28:34.437Z,3.50
2023-01-15T12:31:51.943Z,3.30
2023-01-15T12:35:08.936Z,3.10
2023-01-15T12:41:54.194Z,3.30
2023-01-15T12:45:10.909Z,3.20
2023-01-15T12:48:29.409Z,3.20
2023-01-15T12:51:49.600Z,3.55
2023-01-15T12:55:08.521Z,3.35
2023-01-15T12:58:31.509Z,3.10
2023-01-15T13:01:49.996Z,3.43
2023-01-15T13:05:11.181Z,2.85
2023-01-15T13:08:29.272Z,3.20
2023-01-15T13:11:41.448Z,3.48
2023-01-15T13:14:54.482Z,3.40
2023-01-15T13:18:14.908Z,3.15
2023-01-15T13:21:28.279Z,3.28
2023-01-15T13:25:20.513Z,3.30
2023-01-15T13:28:47.378Z,3.63
2023-01-15T13:32:07.194Z,4.85
2023-01-15T13:35:27.353Z,3.98
2023-01-15T13:38:46.703Z,4.40
2023-01-15T13:42:15.206Z,4.33
2023-01-15T13:45:42.775Z,3.60
2023-01-15T13:48:58.147Z,3.78
2023-01-15T13:52:13.131Z,4.00
2023-01-15T13:55:34.172Z,3.33
2023-01-15T13:58:58.090Z,3.85
2023-01-15T14:02:22.926Z,3.83
2023-01-15T14:05:41.263Z,3.70
2023-01-15T14:08:55.530Z,3.60
2023-01-15T14:12:18.588Z,3.28
2023-01-15T14:15:42.639Z,3.68
2023-01-15T14:19:29.476Z,3.90
2023-01-15T14:22:58.585Z,4.33
2023-01-15T14:26:20.687Z,3.80
2023-01-15T14:30:06.521Z,4.05
2023-01-15T14:33:29.076Z,3.68
2023-01-15T14:36:49.262Z,4.05
2023-01-15T14:40:03.781Z,3.80
2023-01-15T14:43:25.648Z,4.65
2023-01-15T14:46:42.264Z,4.15
2023-01-15T14:50:06.445Z,4.65
2023-01-15T14:53:47.140Z,3.98
2023-01-15T14:57:02.870Z,5.13
2023-01-15T15:00:23.108Z,3.90
2023-01-15T15:03:41.451Z,3.80
2023-01-15T15:06:58.582Z,4.20
2023-01-15T15:10:17.267Z,4.55
2023-01-15T15:13:37.043Z,5.00
2023-01-15T15:16:54.898Z,5.03
2023-01-15T15:20:24.497Z,4.70
2023-01-15T15:23:44.522Z,4.08
2023-01-15T15:26:56.878Z,4.40
2023-01-15T15:30:21.113Z,4.63
2023-01-15T15:33:39.348Z,3.95
2023-01-15T15:36:53.411Z,4.40
2023-01-15T15:40:09.764Z,4.70
2023-01-15T15:43:41.661Z,6.20
2023-01-15T15:47:12.651Z,5.23
2023-01-15T15:50:31.560Z,4.70
2023-01-15T15:53:43.787Z,4.73
2023-01-15T15:57:09.065Z,4.55
2023-01-15T16:00:27.876Z,4.45
2023-01-15T16:03:41.044Z,5.00
2023-01-15T16:06:53.483Z,4.18
2023-01-15T16:10:11.830Z,3.90
2023-01-15T16:13:31.672Z,3.88
2023-01-15T16:16:44.581Z,4.80
2023-01-15T16:19:57.136Z,4.60
2023-01-15T16:23:22.970Z,6.80
2023-01-15T16:26:42.190Z,4.60
2023-01-15T16:29:58.857Z,4.40
2023-01-15T16:33:14.219Z,3.70
2023-01-15T16:36:26.581Z,4.40
2023-01-15T16:39:43.460Z,3.88
2023-01-15T16:43:03.743Z,3.78
2023-01-15T16:46:23.527Z,4.30
2023-01-15T16:49:38.096Z,4.38
2023-01-15T16:53:02.084Z,4.18
2023-01-15T16:56:37.383Z,4.30
2023-01-15T17:00:15.202Z,3.88
2023-01-15T17:03:30.107Z,5.53
2023-01-15T17:06:42.216Z,4.25
2023-01-15T17:09:57.584Z,4.15
2023-01-15T17:13:09.923Z,4.28
2023-01-15T17:16:27.481Z,4.33
2023-01-15T17:19:39.710Z,4.75
2023-01-15T17:22:54.537Z,4.88
2023-01-15T17:26:07.956Z,4.70
2023-01-15T17:29:21.085Z,4.88
2023-01-15T17:32:40.501Z,4.30
2023-01-15T17:35:53.953Z,4.85
2023-01-15T17:39:06.254Z,5.18
2023-01-15T17:42:23.330Z,6.28
2023-01-15T17:48:47.743Z,4.85
2023-01-15T17:51:59.924Z,4.03
2023-01-15T17:55:28.715Z,3.80
2023-01-15T17:58:55.303Z,4.40
2023-01-15T18:02:22.882Z,4.80
2023-01-15T18:05:37.042Z,4.98
2023-01-15T18:08:53.706Z,4.28
2023-01-15T18:12:05.899Z,4.18
2023-01-15T18:15:19.948Z,4.28
2023-01-15T18:18:32.109Z,4.95
2023-01-15T18:21:47.136Z,4.10
2023-01-15T18:24:59.248Z,4.00
2023-01-15T18:28:15.018Z,3.40
2023-01-15T18:31:27.676Z,3.73
2023-01-15T18:37:44.894Z,3.18
2023-01-15T18:47:01.061Z,3.00
2023-01-15T19:47:04.591Z,3.20
2023-01-15T19:50:24.722Z,3.90
2023-01-15T19:53:37.422Z,2.80
2023-01-15T19:56:49.572Z,3.00
2023-01-15T20:00:01.863Z,3.18
2023-01-15T20:03:16.079Z,4.53
2023-01-15T20:06:28.319Z,16.23
2023-01-15T20:09:40.877Z,2.80
2023-01-15T20:13:07.883Z,2.80
2023-01-15T20:16:25.449Z,3.00
2023-01-15T20:19:38.353Z,2.63
2023-01-15T20:22:51.061Z,3.45
2023-01-15T20:26:10.431Z,2.50
2023-01-15T20:29:22.425Z,3.00
2023-01-15T20:32:34.538Z,2.50
2023-01-15T20:35:47.007Z,4.98
2023-01-15T20:38:59.153Z,2.90
2023-01-15T20:42:26.339Z,3.23
2023-01-15T20:45:38.879Z,3.30
2023-01-15T20:49:06.169Z,3.30
2023-01-15T20:52:18.710Z,3.75
2023-01-15T20:55:45.702Z,3.13
2023-01-15T20:58:51.619Z,3.35
2023-01-15T21:02:04.060Z,3.48
2023-01-15T21:05:20.427Z,3.35
2023-01-15T21:08:33.773Z,3.87
2023-01-15T21:11:46.108Z,3.50
2023-01-15T21:14:58.283Z,3.18
2023-01-15T21:18:10.626Z,3.23
2023-01-15T21:21:24.929Z,3.00
2023-01-15T21:24:37.703Z,2.63
2023-01-15T21:27:49.862Z,2.50
2023-01-15T21:31:04.230Z,4.90
2023-01-15T21:34:17.236Z,1.90
2023-01-15T21:37:30.376Z,2.38
2023-01-15T21:40:44.442Z,2.03
2023-01-15T21:44:11.170Z,2.20
2023-01-15T21:47:26.742Z,2.33
2023-01-15T21:50:40.398Z,2.23
2023-01-15T21:53:52.764Z,1.90
2023-01-15T21:57:06.137Z,1.98
2023-01-15T22:00:21.337Z,2.38
2023-01-15T22:03:33.473Z,2.15
2023-01-15T22:06:45.593Z,2.20
2023-01-15T22:09:57.886Z,1.90
2023-01-15T22:13:10.138Z,2.03
2023-01-15T22:16:23.906Z,2.28
2023-01-15T22:19:37.913Z,2.28
2023-01-15T22:22:50.146Z,2.18
2023-01-15T22:26:07.806Z,2.25
2023-01-15T22:29:21.481Z,2.45
2023-01-15T22:32:33.628Z,2.40
2023-01-15T22:35:45.917Z,2.15
2023-01-15T22:38:59.125Z,2.20
2023-01-15T22:42:30.932Z,2.20
2023-01-15T22:45:42.980Z,2.43
2023-01-15T22:48:55.381Z,1.95
2023-01-15T22:52:08.777Z,2.33
2023-01-15T22:55:20.936Z,2.10
2023-01-15T22:58:33.910Z,1.90
2023-01-15T23:01:46.669Z,1.63
2023-01-15T23:04:58.825Z,2.23
2023-01-15T23:08:11.473Z,1.93
2023-01-15T23:11:23.817Z,2.10
2023-01-15T23:14:35.823Z,2.10
2023-01-15T23:17:48.990Z,2.08
2023-01-15T23:21:01.104Z,2.10
2023-01-15T23:24:14.853Z,2.03
2023-01-15T23:27:26.839Z,2.18
2023-01-15T23:30:39.451Z,2.10
2023-01-15T23:33:51.971Z,1.75
2023-01-15T23:37:04.178Z,2.28
2023-01-15T23:40:18.838Z,1.63
2023-01-15T23:43:45.888Z,2.05
2023-01-15T23:46:58.163Z,1.68
2023-01-15T23:50:11.749Z,1.55
2023-01-15T23:53:23.966Z,2.15
2023-01-15T23:56:37.383Z,1.83
2023-01-15T23:59:49.437Z,2.13
